createdAt,value
2024-05-09T00:00:36.504Z,99055.00
2024-05-09T00:06:01.713Z,99047.00
2024-05-09T00:11:24.113Z,99058.00
2024-05-09T00:16:46.016Z,99058.00
2024-05-09T00:22:08.084Z,99052.00
2024-05-09T00:27:29.936Z,99053.00
2024-05-09T00:32:52.199Z,99056.00
2024-05-09T00:38:14.315Z,99053.00
2024-05-09T00:43:36.121Z,99052.00
2024-05-09T00:48:58.245Z,99052.00
2024-05-09T00:54:20.438Z,99044.00
2024-05-09T00:59:42.466Z,99054.00
2024-05-09T01:05:04.578Z,99055.00
2024-05-09T01:10:33.651Z,99056.00
2024-05-09T01:15:58.396Z,99058.00
2024-05-09T01:21:20.317Z,99052.00
2024-05-09T01:26:42.299Z,99055.00
2024-05-09T01:32:05.112Z,99047.00
2024-05-09T01:37:26.917Z,99047.00
2024-05-09T01:42:48.887Z,99047.00
2024-05-09T01:48:11.429Z,99057.00
2024-05-09T01:53:33.890Z,99044.00
2024-05-09T01:58:55.881Z,99062.00
2024-05-09T02:04:17.904Z,99055.00
2024-05-09T02:09:39.716Z,99063.00
2024-05-09T02:15:01.487Z,99067.00
2024-05-09T02:20:30.620Z,99059.00
2024-05-09T02:25:57.293Z,99060.00
2024-05-09T02:31:19.364Z,99058.00
2024-05-09T02:36:41.575Z,99055.00
2024-05-09T02:42:03.502Z,99043.00
2024-05-09T02:47:25.776Z,99042.00
2024-05-09T02:52:47.534Z,99033.00
2024-05-09T02:58:09.415Z,99043.00
2024-05-09T03:03:31.893Z,99043.00
2024-05-09T03:08:54.053Z,99042.00
2024-05-09T03:14:19.715Z,99048.00
2024-05-09T03:19:41.498Z,99044.00
2024-05-09T03:25:03.412Z,99043.00
2024-05-09T03:30:38.585Z,99047.00
2024-05-09T03:36:06.863Z,99054.00
2024-05-09T03:41:30.495Z,99049.00
2024-05-09T03:46:52.452Z,99042.00
2024-05-09T03:52:14.382Z,99040.00
2024-05-09T03:57:36.155Z,99027.00
2024-05-09T04:02:59.411Z,99028.00
2024-05-09T04:08:21.543Z,99032.00
2024-05-09T04:13:43.657Z,99033.00
2024-05-09T04:19:05.921Z,99047.00
2024-05-09T04:24:27.786Z,99049.00
2024-05-09T04:29:49.650Z,99060.00
2024-05-09T04:35:11.951Z,99061.00
2024-05-09T04:40:36.959Z,99073.00
2024-05-09T04:45:59.503Z,99061.00
2024-05-09T04:51:21.535Z,99061.00
2024-05-09T04:56:43.547Z,99069.00
2024-05-09T05:02:05.659Z,99074.00
2024-05-09T05:07:27.454Z,99064.00
2024-05-09T05:13:07.755Z,99066.00
2024-05-09T05:18:30.126Z,99065.00
2024-05-09T05:23:52.110Z,99077.00
2024-05-09T05:29:14.388Z,99065.00
2024-05-09T05:34:36.858Z,99076.00
2024-05-09T05:39:58.999Z,99078.00
2024-05-09T05:45:20.548Z,99085.00
2024-05-09T05:50:43.427Z,99089.00
2024-05-09T05:56:05.831Z,99092.00
2024-05-09T06:01:27.494Z,99099.00
2024-05-09T06:06:49.700Z,99093.00
2024-05-09T06:12:11.680Z,99092.00
2024-05-09T06:17:33.665Z,99089.00
2024-05-09T06:22:55.385Z,99092.00
2024-05-09T06:28:17.413Z,99093.00
2024-05-09T06:33:41.317Z,99098.00
2024-05-09T06:39:03.195Z,99103.00
2024-05-09T06:44:25.298Z,99103.00
2024-05-09T06:49:47.452Z,99097.00
2024-05-09T06:55:09.219Z,99102.00
2024-05-09T07:00:38.356Z,99107.00
2024-05-09T07:06:02.653Z,99109.00
2024-05-09T07:11:25.192Z,99111.00
2024-05-09T07:22:08.922Z,99106.00
2024-05-09T07:27:30.740Z,99104.00
2024-05-09T07:32:52.780Z,99107.00
2024-05-09T07:38:14.886Z,99112.00
2024-05-09T07:43:36.448Z,99098.00
2024-05-09T07:50:35.615Z,99093.00
2024-05-09T07:54:39.830Z,99088.00
2024-05-09T08:00:01.601Z,99096.00
2024-05-09T08:05:23.631Z,99088.00
2024-05-09T08:10:45.545Z,99081.00
2024-05-09T08:16:09.146Z,99092.00
2024-05-09T08:21:31.313Z,99085.00
2024-05-09T08:26:52.993Z,99079.00
2024-05-09T08:32:15.113Z,99086.00
2024-05-09T08:37:40.586Z,99083.00
2024-05-09T08:43:02.875Z,99087.00
2024-05-09T08:48:25.421Z,99090.00
2024-05-09T08:53:47.499Z,99089.00
2024-05-09T08:59:17.317Z,99090.00
2024-05-09T09:04:44.621Z,99082.00
2024-05-09T09:10:08.572Z,99084.00
2024-05-09T09:15:30.475Z,99097.00
2024-05-09T09:20:52.321Z,99085.00
2024-05-09T09:26:17.058Z,99085.00
2024-05-09T09:31:39.543Z,99090.00
2024-05-09T09:37:11.660Z,99095.00
2024-05-09T09:42:36.415Z,99085.00
2024-05-09T09:47:59.520Z,99085.00
2024-05-09T09:53:22.922Z,99088.00
2024-05-09T09:58:45.735Z,99085.00
2024-05-09T10:04:08.236Z,99087.00
2024-05-09T10:09:30.487Z,99090.00
2024-05-09T10:14:54.345Z,99088.00
2024-05-09T10:20:21.857Z,99095.00
2024-05-09T10:26:07.669Z,99091.00
2024-05-09T10:31:30.806Z,99089.00
2024-05-09T10:36:56.018Z,99087.00
2024-05-09T10:42:19.934Z,99080.00
2024-05-09T10:47:42.467Z,99079.00
2024-05-09T10:53:05.051Z,99076.00
2024-05-09T10:58:27.990Z,99072.00
2024-05-09T11:03:50.913Z,99061.00
2024-05-09T11:09:14.943Z,99057.00
2024-05-09T11:14:37.125Z,99061.00
2024-05-09T11:20:00.660Z,99056.00
2024-05-09T11:25:22.367Z,99044.00
2024-05-09T11:30:44.179Z,99033.00
2024-05-09T11:36:07.783Z,99037.00
2024-05-09T11:41:31.525Z,99035.00
2024-05-09T11:46:53.897Z,99036.00
2024-05-09T11:52:16.000Z,99027.00
2024-05-09T11:57:39.265Z,99029.00
2024-05-09T12:03:01.111Z,99024.00
2024-05-09T12:08:23.114Z,99019.00
2024-05-09T12:13:45.106Z,99011.00
2024-05-09T12:19:06.999Z,99008.00
2024-05-09T12:24:30.810Z,99015.00
2024-05-09T12:29:52.678Z,99009.00
2024-05-09T12:35:14.680Z,99011.00
2024-05-09T12:40:38.758Z,98997.00
2024-05-09T12:46:01.569Z,99002.00
2024-05-09T12:51:23.214Z,99008.00
2024-05-09T12:56:45.059Z,98990.00
2024-05-09T13:02:07.049Z,98972.00
2024-05-09T13:07:28.891Z,98975.00
2024-05-09T13:12:50.455Z,98968.00
2024-05-09T13:18:12.486Z,98969.00
2024-05-09T13:23:34.437Z,98961.00
2024-05-09T13:28:56.380Z,98958.00
2024-05-09T13:34:18.280Z,98950.00
2024-05-09T13:39:40.091Z,98946.00
2024-05-09T13:45:01.898Z,98954.00
2024-05-09T13:50:31.599Z,98943.00
2024-05-09T13:55:56.944Z,98945.00
2024-05-09T14:01:19.164Z,98931.00
2024-05-09T14:06:42.398Z,98933.00
2024-05-09T14:12:04.177Z,98930.00
2024-05-09T14:17:26.301Z,98937.00
2024-05-09T14:22:48.249Z,98917.00
2024-05-09T14:28:10.732Z,98907.00
2024-05-09T14:33:32.676Z,98912.00
2024-05-09T14:38:54.432Z,98909.00
2024-05-09T14:44:16.362Z,98905.00
2024-05-09T14:49:38.153Z,98895.00
2024-05-09T14:55:00.998Z,98892.00
2024-05-09T15:00:28.814Z,98883.00
2024-05-09T15:05:55.256Z,98886.00
2024-05-09T15:11:17.269Z,98891.00
2024-05-09T15:16:39.268Z,98883.00
2024-05-09T15:22:00.985Z,98876.00
2024-05-09T15:27:22.966Z,98881.00
2024-05-09T15:32:46.710Z,98875.00
2024-05-09T15:38:12.439Z,98871.00
2024-05-09T15:43:34.156Z,98865.00
2024-05-09T15:48:55.954Z,98855.00
2024-05-09T15:54:17.884Z,98847.00
2024-05-09T15:59:40.074Z,98843.00
2024-05-09T16:05:02.281Z,98850.00
2024-05-09T16:10:30.071Z,98847.00
2024-05-09T16:15:54.521Z,98837.00
2024-05-09T16:21:16.711Z,98847.00
2024-05-09T16:26:38.837Z,98832.00
2024-05-09T16:32:00.288Z,98834.00
2024-05-09T16:37:24.250Z,98834.00
2024-05-09T16:42:47.155Z,98833.00
2024-05-09T16:48:09.217Z,98835.00
2024-05-09T16:53:31.371Z,98841.00
2024-05-09T16:58:53.252Z,98840.00
2024-05-09T17:04:15.450Z,98834.00
2024-05-09T17:09:37.393Z,98835.00
2024-05-09T17:14:59.075Z,98832.00
2024-05-09T17:20:29.401Z,98830.00
2024-05-09T17:25:55.340Z,98827.00
2024-05-09T17:31:17.345Z,98826.00
2024-05-09T17:36:39.108Z,98838.00
2024-05-09T17:42:00.887Z,98832.00
2024-05-09T17:47:23.487Z,98828.00
2024-05-09T17:52:45.220Z,98828.00
2024-05-09T17:58:08.038Z,98832.00
2024-05-09T18:03:30.266Z,98824.00
2024-05-09T18:08:52.343Z,98837.00
2024-05-09T18:14:14.047Z,98833.00
2024-05-09T18:19:35.841Z,98829.00
2024-05-09T18:24:57.986Z,98834.00
2024-05-09T18:30:27.424Z,98834.00
2024-05-09T18:35:53.563Z,98826.00
2024-05-09T18:41:15.341Z,98831.00
2024-05-09T18:46:37.041Z,98833.00
2024-05-09T18:51:58.946Z,98841.00
2024-05-09T18:57:20.904Z,98840.00
2024-05-09T19:02:42.589Z,98849.00
2024-05-09T19:08:04.260Z,98861.00
2024-05-09T19:13:26.240Z,98852.00
2024-05-09T19:18:51.273Z,98857.00
2024-05-09T19:24:13.755Z,98858.00
2024-05-09T19:29:35.184Z,98863.00
2024-05-09T19:34:57.043Z,98867.00
2024-05-09T19:40:25.109Z,98871.00
2024-05-09T19:45:52.647Z,98872.00
2024-05-09T19:51:14.487Z,98863.00
2024-05-09T19:56:36.523Z,98873.00
2024-05-09T20:01:58.370Z,98878.00
2024-05-09T20:07:19.998Z,98869.00
2024-05-09T20:12:42.030Z,98883.00
2024-05-09T20:18:04.804Z,98876.00
2024-05-09T20:23:27.568Z,98875.00
2024-05-09T20:28:49.511Z,98873.00
2024-05-09T20:34:11.269Z,98880.00
2024-05-09T20:39:33.137Z,98869.00
2024-05-09T20:44:55.160Z,98867.00
2024-05-09T20:50:27.422Z,98868.00
2024-05-09T20:55:54.974Z,98868.00
2024-05-09T21:01:17.014Z,98863.00
2024-05-09T21:06:38.973Z,98876.00
2024-05-09T21:12:00.926Z,98867.00
2024-05-09T21:17:22.637Z,98875.00
2024-05-09T21:22:47.522Z,98867.00
2024-05-09T21:28:09.627Z,98881.00
2024-05-09T21:33:31.493Z,98875.00
2024-05-09T21:38:53.626Z,98867.00
2024-05-09T21:44:15.560Z,98860.00
2024-05-09T21:49:37.658Z,98862.00
2024-05-09T21:54:59.522Z,98863.00
2024-05-09T22:00:29.000Z,98859.00
2024-05-09T22:05:57.343Z,98863.00
2024-05-09T22:11:19.337Z,98861.00
2024-05-09T22:16:41.710Z,98860.00
2024-05-09T22:22:03.913Z,98858.00
2024-05-09T22:27:25.886Z,98856.00
2024-05-09T22:32:47.589Z,98853.00
2024-05-09T22:38:09.400Z,98861.00
2024-05-09T22:43:31.700Z,98852.00
2024-05-09T22:48:56.537Z,98862.00
2024-05-09T22:54:18.421Z,98862.00
2024-05-09T22:59:40.159Z,98849.00
2024-05-09T23:05:01.957Z,98858.00
2024-05-09T23:10:31.447Z,98847.00
2024-05-09T23:15:57.810Z,98853.00
2024-05-09T23:21:19.602Z,98840.00
2024-05-09T23:26:44.614Z,98832.00
2024-05-09T23:32:06.765Z,98833.00
2024-05-09T23:37:29.174Z,98827.00
2024-05-09T23:42:51.035Z,98825.00
2024-05-09T23:48:12.990Z,98821.00
2024-05-09T23:53:34.668Z,98828.00
2024-05-09T23:58:56.668Z,98825.00
